createdAt,value
2023-05-15T07:14:10.647Z,13.40
2023-05-15T07:16:37.689Z,11.77
2023-05-15T07:19:04.743Z,12.52
2023-05-15T07:21:31.713Z,11.88
2023-05-15T07:23:59.960Z,10.93
2023-05-15T07:26:36.365Z,10.57
2023-05-15T07:29:07.909Z,11.93
2023-05-15T07:31:35.014Z,12.30
2023-05-15T07:34:02.159Z,11.80
2023-05-15T07:36:29.264Z,12.43
2023-05-15T07:38:56.363Z,11.75
2023-05-15T07:41:23.303Z,13.00
2023-05-15T07:43:50.263Z,11.40
2023-05-15T07:46:17.412Z,11.82
2023-05-15T07:48:44.443Z,10.48
2023-05-15T07:51:11.436Z,10.93
2023-05-15T07:53:38.336Z,11.52
2023-05-15T07:56:05.739Z,11.07
2023-05-15T07:58:35.637Z,10.95
2023-05-15T08:01:02.736Z,11.35
2023-05-15T08:03:29.922Z,13.90
2023-05-15T08:05:57.000Z,11.68
2023-05-15T08:08:23.929Z,11.45
2023-05-15T08:10:50.916Z,12.85
2023-05-15T08:13:17.836Z,12.48
2023-05-15T08:15:44.955Z,12.25
2023-05-15T08:18:11.918Z,14.63
2023-05-15T08:20:39.410Z,14.93
2023-05-15T08:23:06.387Z,15.77
2023-05-15T08:25:33.417Z,13.65
2023-05-15T08:28:00.358Z,13.63
2023-05-15T08:30:27.340Z,15.57
2023-05-15T08:32:54.517Z,17.08
2023-05-15T08:35:21.565Z,15.35
2023-05-15T08:37:48.559Z,15.30
2023-05-15T08:40:15.783Z,15.32
2023-05-15T08:42:42.754Z,16.70
2023-05-15T08:47:51.409Z,14.23
2023-05-15T08:50:22.750Z,15.50
2023-05-15T08:52:50.662Z,15.75
2023-05-15T08:55:18.408Z,16.05
2023-05-15T08:57:46.515Z,14.18
2023-05-15T09:00:14.984Z,17.00
2023-05-15T09:02:43.329Z,17.25
2023-05-15T09:05:11.090Z,17.75
2023-05-15T09:07:45.164Z,14.98
2023-05-15T09:10:13.922Z,14.50
2023-05-15T09:12:44.962Z,14.95
2023-05-15T09:15:18.776Z,12.73
2023-05-15T09:17:46.318Z,13.75
2023-05-15T09:20:28.101Z,12.07
2023-05-15T09:22:56.527Z,13.30
2023-05-15T09:25:35.945Z,14.98
2023-05-15T09:28:03.370Z,14.45
2023-05-15T09:30:31.459Z,13.65
2023-05-15T09:33:05.534Z,14.05
2023-05-15T09:35:35.637Z,13.27
2023-05-15T09:38:06.468Z,13.43
2023-05-15T09:40:33.468Z,13.77
2023-05-15T09:43:00.777Z,13.70
2023-05-15T09:45:30.371Z,13.50
2023-05-15T09:48:00.582Z,12.73
2023-05-15T09:50:35.255Z,12.80
2023-05-15T09:53:02.493Z,13.30
2023-05-15T09:55:33.238Z,11.63
2023-05-15T09:58:14.020Z,12.48
2023-05-15T10:00:47.980Z,13.13
2023-05-15T10:03:19.636Z,11.75
2023-05-15T10:05:47.052Z,13.13
2023-05-15T10:08:16.041Z,12.40
2023-05-15T10:10:44.014Z,10.32
2023-05-15T10:13:12.114Z,10.18
2023-05-15T10:15:40.049Z,11.23
2023-05-15T10:18:08.858Z,12.02
2023-05-15T10:20:37.792Z,10.73
2023-05-15T10:23:06.661Z,11.93
2023-05-15T10:25:36.800Z,10.27
2023-05-15T10:28:04.193Z,10.55
2023-05-15T10:30:32.485Z,11.23
2023-05-15T10:33:01.064Z,11.48
2023-05-15T10:35:28.916Z,11.00
2023-05-15T10:37:57.397Z,9.88
2023-05-15T10:40:25.178Z,10.65
2023-05-15T10:42:54.359Z,11.35
2023-05-15T10:47:49.167Z,9.77
2023-05-15T10:50:16.358Z,11.73
2023-05-15T10:52:43.446Z,10.48
2023-05-15T10:55:16.500Z,10.25
2023-05-15T10:57:46.563Z,9.82
2023-05-15T11:00:22.680Z,11.07
2023-05-15T11:02:56.771Z,10.68
2023-05-15T11:05:24.720Z,10.75
2023-05-15T11:08:23.573Z,10.13
2023-05-15T11:10:50.525Z,9.73
2023-05-15T11:13:17.519Z,10.75
2023-05-15T11:15:46.686Z,9.88
2023-05-15T11:18:14.509Z,9.60
2023-05-15T11:21:01.719Z,11.20
2023-05-15T11:23:28.788Z,12.90
2023-05-15T11:26:01.819Z,10.85
2023-05-15T11:28:31.291Z,12.93
2023-05-15T11:31:07.071Z,11.95
2023-05-15T11:33:34.224Z,12.60
2023-05-15T11:36:04.988Z,13.00
2023-05-15T11:38:38.032Z,11.73
2023-05-15T11:41:18.148Z,11.98
2023-05-15T11:43:45.226Z,11.05
2023-05-15T11:46:14.350Z,12.32
2023-05-15T11:48:48.044Z,11.07
2023-05-15T11:51:21.938Z,13.18
2023-05-15T11:53:55.043Z,11.57
2023-05-15T11:56:28.661Z,12.90
2023-05-15T11:58:58.279Z,12.00
2023-05-15T12:01:25.685Z,11.48
2023-05-15T12:03:55.073Z,12.68
2023-05-15T12:06:23.060Z,11.63
2023-05-15T12:08:53.976Z,12.55
2023-05-15T12:11:25.165Z,10.77
2023-05-15T12:13:56.086Z,11.32
2023-05-15T12:16:27.158Z,11.80
2023-05-15T12:18:54.707Z,11.10
2023-05-15T12:21:21.769Z,10.80
2023-05-15T12:24:06.377Z,12.05
2023-05-15T12:26:35.020Z,12.05
2023-05-15T12:29:02.480Z,11.52
2023-05-15T12:31:30.008Z,11.67
2023-05-15T12:33:57.518Z,12.10
2023-05-15T12:36:27.406Z,11.23
2023-05-15T12:38:59.682Z,10.00
2023-05-15T12:41:28.601Z,10.82
2023-05-15T12:43:55.992Z,11.38
2023-05-15T12:46:24.736Z,9.27
2023-05-15T12:48:52.365Z,11.43
2023-05-15T12:51:19.362Z,11.48
2023-05-15T12:53:48.111Z,9.95
2023-05-15T12:56:18.145Z,10.38
2023-05-15T12:58:45.468Z,10.20
2023-05-15T13:01:12.827Z,9.98
2023-05-15T13:03:45.253Z,8.88
2023-05-15T13:06:12.407Z,9.48
2023-05-15T13:08:41.773Z,9.35
2023-05-15T13:11:14.246Z,9.55
2023-05-15T13:13:53.191Z,9.57
2023-05-15T13:16:27.224Z,9.50
2023-05-15T13:18:54.324Z,8.10
2023-05-15T13:21:21.469Z,7.30
2023-05-15T13:23:48.456Z,7.40
2023-05-15T13:26:15.484Z,7.57
2023-05-15T13:28:42.415Z,8.10
2023-05-15T13:31:09.590Z,7.60
2023-05-15T13:33:36.583Z,6.95
2023-05-15T13:36:03.762Z,6.80
2023-05-15T13:38:30.761Z,9.20
2023-05-15T13:40:58.425Z,8.48
2023-05-15T13:43:26.619Z,8.57
2023-05-15T13:45:54.506Z,7.75
2023-05-15T13:48:21.633Z,8.40
2023-05-15T13:50:48.902Z,9.02
2023-05-15T13:53:17.165Z,8.23
2023-05-15T13:55:45.708Z,9.75
2023-05-15T13:58:15.901Z,8.73
2023-05-15T14:00:44.309Z,10.18
2023-05-15T14:03:14.106Z,7.90
2023-05-15T14:05:42.173Z,8.63
2023-05-15T14:08:09.537Z,6.18
2023-05-15T14:10:37.706Z,6.65
2023-05-15T14:13:04.925Z,6.57
2023-05-15T14:15:31.968Z,6.72
2023-05-15T14:17:58.980Z,5.75
2023-05-15T14:20:26.321Z,6.68
2023-05-15T14:22:53.509Z,7.60
2023-05-15T14:25:20.645Z,7.82
2023-05-15T14:27:47.902Z,7.82
2023-05-15T14:30:15.066Z,7.85
2023-05-15T14:32:42.223Z,7.65
2023-05-15T14:35:09.213Z,7.55
2023-05-15T14:37:37.784Z,7.13
2023-05-15T14:40:05.326Z,7.40
2023-05-15T14:42:32.431Z,8.30
2023-05-15T14:44:59.698Z,6.55
2023-05-15T14:47:28.654Z,5.05
2023-05-15T14:49:56.005Z,6.00
2023-05-15T14:52:23.034Z,5.97
2023-05-15T14:55:00.576Z,6.55
2023-05-15T14:57:34.694Z,5.80
2023-05-15T15:00:01.964Z,4.68
2023-05-15T15:02:29.117Z,5.85
2023-05-15T15:04:56.259Z,4.90
2023-05-15T15:07:23.196Z,4.80
2023-05-15T15:09:50.193Z,4.38
2023-05-15T15:12:17.236Z,4.10
2023-05-15T15:14:44.466Z,4.57
2023-05-15T15:17:11.469Z,3.95
2023-05-15T15:19:38.405Z,4.80
2023-05-15T15:22:05.548Z,4.35
2023-05-15T15:24:32.592Z,5.90
2023-05-15T15:26:59.513Z,4.47
2023-05-15T15:29:26.579Z,3.83
2023-05-15T15:31:53.776Z,4.18
2023-05-15T15:34:20.804Z,3.45
2023-05-15T15:36:47.758Z,3.72
2023-05-15T15:39:14.972Z,3.90
2023-05-15T15:41:41.984Z,3.17
2023-05-15T15:44:08.923Z,3.75
2023-05-15T15:46:35.944Z,3.20
2023-05-15T15:49:04.595Z,5.35
2023-05-15T15:51:33.624Z,3.53
2023-05-15T15:54:00.517Z,3.85
2023-05-15T15:56:28.121Z,4.32
2023-05-15T15:58:55.483Z,4.35
2023-05-15T16:01:22.571Z,4.47
2023-05-15T16:03:49.916Z,4.60
2023-05-15T16:06:16.951Z,4.95
2023-05-15T16:08:43.964Z,4.85
2023-05-15T16:11:10.996Z,5.82
2023-05-15T16:13:39.240Z,5.53
2023-05-15T16:16:07.841Z,6.70
2023-05-15T16:18:35.567Z,8.75
2023-05-15T16:21:02.627Z,6.68
2023-05-15T16:23:34.111Z,6.57
2023-05-15T16:26:02.762Z,6.38
2023-05-15T16:28:29.805Z,6.55
2023-05-15T16:30:57.333Z,7.68
2023-05-15T16:33:24.317Z,6.80
2023-05-15T16:35:52.674Z,8.43
2023-05-15T16:38:20.325Z,8.85
2023-05-15T16:40:47.559Z,9.05
2023-05-15T16:43:15.292Z,10.68
2023-05-15T16:45:42.290Z,10.07
